createdAt,value
2022-11-19T00:02:16.371Z,100669.38
2022-11-19T00:05:01.306Z,100676.09
2022-11-19T00:07:46.494Z,100677.97
2022-11-19T00:10:34.518Z,100672.63
2022-11-19T00:13:19.522Z,100677.75
2022-11-19T00:16:10.414Z,100675.69
2022-11-19T00:18:55.396Z,100671.50
2022-11-19T00:21:40.828Z,100676.09
2022-11-19T00:24:29.057Z,100673.66
2022-11-19T00:27:14.050Z,100689.16
2022-11-19T00:29:59.085Z,100701.28
2022-11-19T00:32:44.199Z,100697.00
2022-11-19T00:35:29.400Z,100700.34
2022-11-19T00:38:14.321Z,100703.88
2022-11-19T00:40:59.555Z,100708.00
2022-11-19T00:43:47.962Z,100704.44
2022-11-19T00:46:33.130Z,100704.34
2022-11-19T00:49:18.681Z,100701.44
2022-11-19T00:52:04.207Z,100708.66
2022-11-19T00:54:49.215Z,100702.59
2022-11-19T00:57:34.172Z,100699.97
2022-11-19T01:00:19.179Z,100707.91
2022-11-19T01:03:04.792Z,100707.06
2022-11-19T01:05:49.974Z,100707.06
2022-11-19T01:08:35.563Z,100698.84
2022-11-19T01:11:23.890Z,100712.47
2022-11-19T01:14:09.168Z,100709.03
2022-11-19T01:16:54.574Z,100706.59
2022-11-19T01:19:39.786Z,100702.97
2022-11-19T01:22:25.109Z,100721.53
2022-11-19T01:25:10.175Z,100724.16
2022-11-19T01:27:55.923Z,100713.59
2022-11-19T01:30:42.324Z,100726.28
2022-11-19T01:33:28.075Z,100734.97
2022-11-19T01:36:16.360Z,100714.00
2022-11-19T01:39:01.519Z,100731.16
2022-11-19T01:41:46.671Z,100726.50
2022-11-19T01:45:01.082Z,100734.03
2022-11-19T01:47:46.430Z,100719.94
2022-11-19T01:50:33.745Z,100720.72
2022-11-19T01:53:21.048Z,100739.38
2022-11-19T01:56:07.841Z,100709.00
2022-11-19T01:58:58.891Z,100753.91
2022-11-19T02:01:44.918Z,100746.06
2022-11-19T02:04:31.138Z,100738.16
2022-11-19T02:07:18.837Z,100755.94
2022-11-19T02:10:05.968Z,100742.34
2022-11-19T02:12:50.841Z,100750.91
2022-11-19T02:15:51.953Z,100747.84
2022-11-19T02:18:49.023Z,100749.63
2022-11-19T02:21:42.430Z,100745.91
2022-11-19T02:24:37.262Z,100763.75
2022-11-19T02:27:43.629Z,100752.16
2022-11-19T02:30:38.491Z,100755.59
2022-11-19T02:33:34.652Z,100755.53
2022-11-19T02:36:28.453Z,100762.59
2022-11-19T02:39:25.010Z,100766.22
2022-11-19T02:42:33.364Z,100766.69
2022-11-19T02:45:34.190Z,100766.78
2022-11-19T02:48:31.391Z,100774.88
2022-11-19T02:51:17.048Z,100773.41
2022-11-19T02:54:04.857Z,100747.22
2022-11-19T02:56:55.293Z,100759.75
2022-11-19T03:00:00.258Z,100762.38
2022-11-19T03:03:14.573Z,100760.97
2022-11-19T03:06:04.943Z,100739.00
2022-11-19T03:08:49.979Z,100740.03
2022-11-19T03:11:35.306Z,100740.22
2022-11-19T03:14:44.687Z,100753.19
2022-11-19T03:17:42.303Z,100759.31
2022-11-19T03:20:34.650Z,100769.16
2022-11-19T03:23:29.344Z,100769.50
2022-11-19T03:26:26.060Z,100770.69
2022-11-19T03:29:13.993Z,100773.50
2022-11-19T03:32:08.164Z,100780.47
2022-11-19T03:34:59.457Z,100783.09
2022-11-19T03:37:50.595Z,100781.91
2022-11-19T03:40:36.867Z,100784.94
2022-11-19T03:43:25.840Z,100783.50
2022-11-19T03:46:16.130Z,100782.91
2022-11-19T03:49:03.004Z,100777.28
2022-11-19T03:52:01.669Z,100775.94
2022-11-19T03:54:47.088Z,100786.84
2022-11-19T03:57:32.242Z,100778.34
2022-11-19T04:00:17.739Z,100782.06
2022-11-19T04:03:03.939Z,100784.81
2022-11-19T04:05:48.910Z,100772.50
2022-11-19T04:08:33.905Z,100782.78
2022-11-19T04:14:02.975Z,100784.19
2022-11-19T04:16:47.910Z,100789.41
2022-11-19T04:19:32.871Z,100753.22
2022-11-19T04:22:17.881Z,100776.34
2022-11-19T04:25:03.248Z,100775.66
2022-11-19T04:27:48.573Z,100795.06
2022-11-19T04:30:33.795Z,100789.63
2022-11-19T04:33:18.928Z,100785.09
2022-11-19T04:36:04.501Z,100783.66
2022-11-19T04:38:49.620Z,100793.22
2022-11-19T04:41:35.985Z,100796.59
2022-11-19T04:44:21.323Z,100794.00
2022-11-19T04:47:06.670Z,100800.72
2022-11-19T04:49:51.874Z,100784.81
2022-11-19T04:52:40.837Z,100804.19
2022-11-19T04:55:26.864Z,100804.41
2022-11-19T04:58:11.927Z,100804.41
2022-11-19T05:00:57.105Z,100791.47
2022-11-19T05:03:42.281Z,100802.59
2022-11-19T05:06:27.222Z,100800.81
2022-11-19T05:09:12.171Z,100798.22
2022-11-19T05:11:57.005Z,100807.78
2022-11-19T05:14:42.253Z,100813.00
2022-11-19T05:17:27.548Z,100810.41
2022-11-19T05:20:12.455Z,100791.78
2022-11-19T05:22:57.741Z,100818.03
2022-11-19T05:25:43.399Z,100802.75
2022-11-19T05:28:38.126Z,100821.94
2022-11-19T05:31:23.808Z,100820.16
2022-11-19T05:34:08.876Z,100824.38
2022-11-19T05:36:53.634Z,100822.69
2022-11-19T05:39:38.409Z,100798.88
2022-11-19T05:42:23.331Z,100817.25
2022-11-19T05:45:09.065Z,100801.25
2022-11-19T05:47:55.146Z,100828.34
2022-11-19T05:50:42.347Z,100824.06
2022-11-19T05:53:27.794Z,100817.25
2022-11-19T05:56:12.941Z,100834.06
2022-11-19T05:58:58.010Z,100840.81
2022-11-19T06:01:42.984Z,100834.59
2022-11-19T06:04:28.094Z,100842.50
2022-11-19T06:07:13.472Z,100844.94
2022-11-19T06:09:58.523Z,100842.19
2022-11-19T06:12:45.915Z,100841.66
2022-11-19T06:15:31.204Z,100854.34
2022-11-19T06:18:16.077Z,100844.03
2022-11-19T06:21:01.266Z,100848.00
2022-11-19T06:23:46.198Z,100843.84
2022-11-19T06:26:31.092Z,100851.16
2022-11-19T06:29:17.934Z,100854.78
2022-11-19T06:32:03.557Z,100860.16
2022-11-19T06:34:48.860Z,100865.31
2022-11-19T06:37:34.148Z,100873.13
2022-11-19T06:40:19.451Z,100870.28
2022-11-19T06:43:05.115Z,100871.28
2022-11-19T06:45:50.023Z,100876.66
2022-11-19T06:48:35.423Z,100874.81
2022-11-19T06:51:20.526Z,100873.13
2022-11-19T06:54:05.630Z,100872.78
2022-11-19T06:56:50.717Z,100874.81
2022-11-19T06:59:35.921Z,100848.53
2022-11-19T07:02:21.748Z,100881.53
2022-11-19T07:05:07.801Z,100859.50
2022-11-19T07:07:53.295Z,100891.47
2022-11-19T07:10:38.395Z,100885.34
2022-11-19T07:13:23.453Z,100891.16
2022-11-19T07:16:08.720Z,100885.09
2022-11-19T07:18:54.280Z,100891.75
2022-11-19T07:21:39.169Z,100869.84
2022-11-19T07:24:24.173Z,100894.28
2022-11-19T07:27:09.243Z,100901.09
2022-11-19T07:29:54.129Z,100894.03
2022-11-19T07:32:39.769Z,100888.81
2022-11-19T07:35:24.817Z,100905.81
2022-11-19T07:38:10.072Z,100911.88
2022-11-19T07:40:56.264Z,100911.03
2022-11-19T07:43:41.190Z,100906.75
2022-11-19T07:46:26.312Z,100915.66
2022-11-19T07:49:11.874Z,100919.13
2022-11-19T07:51:56.823Z,100902.97
2022-11-19T07:54:41.953Z,100903.78
2022-11-19T07:57:30.260Z,100911.91
2022-11-19T08:00:15.781Z,100916.78
2022-11-19T08:03:02.501Z,100911.38
2022-11-19T08:05:47.765Z,100914.94
2022-11-19T08:08:33.287Z,100909.84
2022-11-19T08:11:19.301Z,100895.31
2022-11-19T08:14:04.473Z,100923.44
2022-11-19T08:17:08.173Z,100928.41
2022-11-19T08:19:53.281Z,100932.63
2022-11-19T08:22:40.605Z,100931.59
2022-11-19T08:25:25.645Z,100932.19
2022-11-19T08:28:11.549Z,100931.25
2022-11-19T08:30:57.569Z,100926.97
2022-11-19T08:33:42.452Z,100929.72
2022-11-19T08:36:27.807Z,100932.84
2022-11-19T08:39:12.944Z,100935.25
2022-11-19T08:42:16.733Z,100932.69
2022-11-19T08:45:01.905Z,100933.69
2022-11-19T08:47:46.847Z,100927.94
2022-11-19T08:50:33.077Z,100933.44
2022-11-19T08:53:17.996Z,100914.56
2022-11-19T08:56:03.327Z,100913.06
2022-11-19T08:58:48.913Z,100923.41
2022-11-19T09:01:33.833Z,100912.00
2022-11-19T09:04:19.394Z,100937.94
2022-11-19T09:07:04.904Z,100936.88
2022-11-19T09:09:49.876Z,100933.97
2022-11-19T09:12:34.868Z,100929.69
2022-11-19T09:15:20.303Z,100930.44
2022-11-19T09:18:05.430Z,100931.84
2022-11-19T09:20:57.404Z,100938.94
2022-11-19T09:23:42.673Z,100936.75
2022-11-19T09:26:27.911Z,100956.59
2022-11-19T09:29:13.064Z,100967.75
2022-11-19T09:31:58.086Z,100955.50
2022-11-19T09:34:43.482Z,100948.69
2022-11-19T09:37:31.459Z,100967.69
2022-11-19T09:40:20.548Z,100954.13
2022-11-19T09:43:15.567Z,100973.56
2022-11-19T09:46:23.424Z,100973.00
2022-11-19T09:49:25.665Z,100979.31
2022-11-19T09:52:16.824Z,100981.28
2022-11-19T09:55:03.413Z,100987.72
2022-11-19T09:57:57.596Z,100985.69
2022-11-19T10:00:44.615Z,100986.50
2022-11-19T10:03:33.408Z,100983.63
2022-11-19T10:06:56.478Z,100993.59
2022-11-19T10:09:48.473Z,100970.06
2022-11-19T10:12:44.618Z,100990.66
2022-11-19T10:15:51.704Z,101002.69
2022-11-19T10:18:58.483Z,101002.88
2022-11-19T10:21:55.757Z,101002.31
2022-11-19T10:24:47.436Z,100998.13
2022-11-19T10:27:42.767Z,100988.91
2022-11-19T10:30:30.878Z,100997.81
2022-11-19T10:33:27.460Z,100994.47
2022-11-19T10:36:44.020Z,100993.44
2022-11-19T10:39:38.638Z,100986.59
2022-11-19T10:42:31.788Z,101002.31
2022-11-19T10:45:23.743Z,100993.72
2022-11-19T10:48:25.433Z,100998.56
2022-11-19T10:51:17.690Z,100994.84
2022-11-19T10:54:07.247Z,100986.50
2022-11-19T10:56:54.202Z,100994.59
2022-11-19T10:59:40.704Z,100969.72
2022-11-19T11:02:33.268Z,100976.41
2022-11-19T11:05:19.577Z,100976.97
2022-11-19T11:08:11.273Z,100972.56
2022-11-19T11:10:56.956Z,100972.44
2022-11-19T11:14:00.490Z,100974.66
2022-11-19T11:16:47.705Z,100975.19
2022-11-19T11:19:33.992Z,100947.06
2022-11-19T11:22:19.808Z,100971.25
2022-11-19T11:25:18.726Z,100950.59
2022-11-19T11:28:12.875Z,100975.41
2022-11-19T11:30:59.224Z,100966.31
2022-11-19T11:33:57.925Z,100970.88
2022-11-19T11:36:44.183Z,100966.28
2022-11-19T11:39:36.593Z,100951.91
2022-11-19T11:42:26.330Z,100963.38
2022-11-19T11:45:22.858Z,100958.56
2022-11-19T11:48:19.377Z,100955.31
2022-11-19T11:51:04.601Z,100950.09
2022-11-19T11:54:04.342Z,100946.00
2022-11-19T11:56:49.417Z,100957.22
2022-11-19T11:59:35.340Z,100950.63
2022-11-19T12:02:40.785Z,100950.94
2022-11-19T12:05:29.059Z,100957.69
2022-11-19T12:08:30.476Z,100954.53
2022-11-19T12:11:55.998Z,100956.53
2022-11-19T12:14:58.890Z,100943.41
2022-11-19T12:18:05.779Z,100935.03
2022-11-19T12:21:01.023Z,100955.28
2022-11-19T12:23:59.961Z,100949.94
2022-11-19T12:27:00.792Z,100936.06
2022-11-19T12:29:57.822Z,100944.69
2022-11-19T12:32:52.178Z,100956.66
2022-11-19T12:35:53.021Z,100955.19
2022-11-19T12:38:56.363Z,100950.78
2022-11-19T12:42:25.440Z,100953.50
2022-11-19T12:45:23.721Z,100958.97
2022-11-19T12:48:43.753Z,100968.59
2022-11-19T12:51:52.240Z,100970.06
2022-11-19T12:55:04.351Z,100953.03
2022-11-19T12:58:08.111Z,100977.16
2022-11-19T13:00:58.781Z,100976.34
2022-11-19T13:03:49.651Z,100974.38
2022-11-19T13:07:03.484Z,100978.94
2022-11-19T13:09:54.528Z,100984.50
2022-11-19T13:12:46.068Z,100981.34
2022-11-19T13:15:45.801Z,100978.56
2022-11-19T13:18:34.719Z,100981.94
2022-11-19T13:21:43.327Z,100981.19
2022-11-19T13:24:51.417Z,100978.50
2022-11-19T13:27:37.159Z,100968.72
2022-11-19T13:30:26.664Z,100982.97
2022-11-19T13:33:32.115Z,100965.53
2022-11-19T13:36:29.316Z,100987.78
2022-11-19T13:39:22.965Z,100966.59
2022-11-19T13:42:29.127Z,100981.72
2022-11-19T13:45:18.182Z,100978.22
2022-11-19T13:48:14.363Z,100971.91
2022-11-19T13:51:02.732Z,100961.75
2022-11-19T13:53:48.300Z,100992.28
2022-11-19T13:56:44.090Z,100984.63
2022-11-19T13:59:40.284Z,100989.22
2022-11-19T14:02:31.330Z,100986.31
2022-11-19T14:05:46.931Z,100987.25
2022-11-19T14:08:39.089Z,100992.50
2022-11-19T14:12:02.670Z,100981.56
2022-11-19T14:15:15.792Z,100984.56
2022-11-19T14:18:48.981Z,100984.50
2022-11-19T14:22:12.404Z,100987.09
2022-11-19T14:25:16.963Z,100980.53
2022-11-19T14:28:40.301Z,100981.56
2022-11-19T14:31:25.705Z,100971.84
2022-11-19T14:34:29.370Z,100962.03
2022-11-19T14:37:22.972Z,100961.75
2022-11-19T14:40:16.936Z,100949.50
2022-11-19T14:43:20.830Z,100958.94
2022-11-19T14:46:18.751Z,100968.41
2022-11-19T14:49:07.050Z,100967.53
2022-11-19T14:51:57.233Z,100938.28
2022-11-19T14:54:45.861Z,100956.78
2022-11-19T14:57:39.370Z,100963.69
2022-11-19T15:00:40.689Z,100942.91
2022-11-19T15:03:27.751Z,100935.84
2022-11-19T15:06:17.598Z,100913.75
2022-11-19T15:09:02.598Z,100928.72
2022-11-19T15:12:07.787Z,100925.91
2022-11-19T15:15:04.891Z,100922.53
2022-11-19T15:18:04.967Z,100913.94
2022-11-19T15:21:12.053Z,100912.09
2022-11-19T15:24:19.033Z,100917.00
2022-11-19T15:27:46.904Z,100930.66
2022-11-19T15:30:40.580Z,100910.69
2022-11-19T15:33:44.900Z,100939.31
2022-11-19T15:36:33.606Z,100936.00
2022-11-19T15:39:29.064Z,100909.53
2022-11-19T15:42:19.395Z,100933.91
2022-11-19T15:45:12.754Z,100926.53
2022-11-19T15:48:13.050Z,100941.38
2022-11-19T15:50:58.372Z,100948.88
2022-11-19T15:54:04.312Z,100953.53
2022-11-19T15:56:50.826Z,100947.09
2022-11-19T15:59:38.308Z,100958.78
2022-11-19T16:02:38.625Z,100969.41
2022-11-19T16:05:26.891Z,100967.91
2022-11-19T16:08:14.647Z,100965.66
2022-11-19T16:11:20.760Z,100928.94
2022-11-19T16:14:41.773Z,100971.88
2022-11-19T16:17:42.994Z,100946.84
2022-11-19T16:20:29.003Z,100969.16
2022-11-19T16:23:25.221Z,100971.25
2022-11-19T16:26:10.279Z,100982.56
2022-11-19T16:28:55.694Z,100982.66
2022-11-19T16:31:41.025Z,100985.63
2022-11-19T16:34:31.324Z,100980.47
2022-11-19T16:37:21.977Z,100987.56
2022-11-19T16:40:14.470Z,100998.19
2022-11-19T16:43:00.837Z,100993.13
2022-11-19T16:45:46.943Z,100983.06
2022-11-19T16:48:50.414Z,101001.06
2022-11-19T16:51:41.225Z,101005.53
2022-11-19T16:54:42.338Z,100992.22
2022-11-19T16:57:29.674Z,101007.56
2022-11-19T17:00:20.889Z,100996.44
2022-11-19T17:03:30.930Z,100991.22
2022-11-19T17:06:25.562Z,100995.34
2022-11-19T17:09:29.813Z,100976.84
2022-11-19T17:12:29.212Z,100999.81
2022-11-19T17:15:38.638Z,101001.59
2022-11-19T17:18:33.087Z,101000.66
2022-11-19T17:21:30.319Z,101001.47
2022-11-19T17:24:17.982Z,101004.19
2022-11-19T17:27:04.528Z,100998.38
2022-11-19T17:29:50.070Z,100996.78
2022-11-19T17:32:41.523Z,101008.91
2022-11-19T17:35:40.058Z,101004.75
2022-11-19T17:38:27.702Z,100991.88
2022-11-19T17:41:16.396Z,101002.00
2022-11-19T17:44:20.295Z,101003.69
2022-11-19T17:47:22.225Z,101010.59
2022-11-19T17:50:08.633Z,101009.28
2022-11-19T17:52:53.861Z,101003.59
2022-11-19T17:55:41.644Z,100990.19
2022-11-19T17:58:26.853Z,101013.03
2022-11-19T18:01:13.064Z,101000.22
2022-11-19T18:03:59.165Z,101009.41
2022-11-19T18:06:44.450Z,101014.44
2022-11-19T18:09:34.636Z,101007.72
2022-11-19T18:12:20.311Z,101010.34
2022-11-19T18:15:06.259Z,101008.63
2022-11-19T18:17:51.462Z,100990.13
2022-11-19T18:20:37.384Z,101004.34
2022-11-19T18:23:22.561Z,101000.22
2022-11-19T18:26:12.136Z,101003.75
2022-11-19T18:28:57.664Z,100999.13
2022-11-19T18:31:45.889Z,100994.50
2022-11-19T18:34:30.762Z,100996.41
2022-11-19T18:37:15.616Z,101005.00
2022-11-19T18:40:00.655Z,100999.94
2022-11-19T18:43:04.361Z,101002.66
2022-11-19T18:45:49.535Z,101003.56
2022-11-19T18:48:34.435Z,100988.59
2022-11-19T18:51:19.932Z,101006.34
2022-11-19T18:54:05.149Z,101006.50
2022-11-19T18:56:50.386Z,101007.53
2022-11-19T18:59:35.757Z,101006.84
2022-11-19T19:02:20.902Z,101007.09
2022-11-19T19:05:06.538Z,101002.28
2022-11-19T19:07:51.580Z,100999.06
2022-11-19T19:10:37.283Z,100999.69
2022-11-19T19:13:22.574Z,101010.56
2022-11-19T19:16:07.444Z,101003.13
2022-11-19T19:18:52.852Z,100983.97
2022-11-19T19:21:37.985Z,101002.81
2022-11-19T19:24:24.351Z,101005.72
2022-11-19T19:27:09.837Z,101011.03
2022-11-19T19:29:54.678Z,100996.00
2022-11-19T19:32:39.774Z,101026.97
2022-11-19T19:35:24.937Z,101015.03
2022-11-19T19:38:10.439Z,101023.13
2022-11-19T19:41:03.941Z,101026.59
2022-11-19T19:43:49.990Z,101024.06
2022-11-19T19:46:35.735Z,101023.53
2022-11-19T19:49:21.025Z,101024.75
2022-11-19T19:52:07.365Z,101016.38
2022-11-19T19:54:52.445Z,101008.25
2022-11-19T19:57:37.453Z,101019.38
2022-11-19T20:00:23.686Z,101020.13
2022-11-19T20:03:08.956Z,101016.00
2022-11-19T20:05:53.876Z,101025.78
2022-11-19T20:08:39.293Z,101027.78
2022-11-19T20:11:25.835Z,101024.63
2022-11-19T20:14:10.995Z,101016.19
2022-11-19T20:16:56.170Z,101017.44
2022-11-19T20:19:41.331Z,101024.75
2022-11-19T20:22:26.231Z,101018.88
2022-11-19T20:25:11.623Z,101025.34
2022-11-19T20:27:56.524Z,101034.34
2022-11-19T20:30:41.696Z,101025.06
2022-11-19T20:33:26.785Z,101035.84
2022-11-19T20:36:14.198Z,101017.47
2022-11-19T20:38:59.571Z,101034.50
2022-11-19T20:42:03.184Z,101030.19
2022-11-19T20:44:48.540Z,101030.69
2022-11-19T20:47:33.751Z,101036.75
2022-11-19T20:50:18.890Z,101033.25
2022-11-19T20:53:04.240Z,101027.34
2022-11-19T20:56:04.484Z,101035.28
2022-11-19T20:58:50.350Z,101024.97
2022-11-19T21:01:36.339Z,101020.38
2022-11-19T21:04:22.217Z,101026.16
2022-11-19T21:07:07.316Z,101022.84
2022-11-19T21:09:52.303Z,101020.53
2022-11-19T21:12:57.308Z,101014.53
2022-11-19T21:15:42.332Z,101000.41
2022-11-19T21:18:30.123Z,100993.50
2022-11-19T21:21:19.869Z,101015.47
2022-11-19T21:24:05.853Z,101013.78
2022-11-19T21:26:50.969Z,100994.50
2022-11-19T21:29:38.172Z,101010.78
2022-11-19T21:32:22.998Z,101015.34
2022-11-19T21:35:07.864Z,101005.16
2022-11-19T21:37:53.274Z,101004.56
2022-11-19T21:40:39.607Z,100987.69
2022-11-19T21:43:26.010Z,101005.69
2022-11-19T21:46:10.866Z,101000.78
2022-11-19T21:48:55.954Z,101007.78
2022-11-19T21:51:41.372Z,101008.88
2022-11-19T21:54:26.575Z,101005.50
2022-11-19T21:57:11.454Z,100981.91
2022-11-19T21:59:56.393Z,100995.44
2022-11-19T22:02:41.406Z,100998.88
2022-11-19T22:05:27.179Z,100999.72
2022-11-19T22:08:12.065Z,101004.97
2022-11-19T22:10:57.412Z,101000.84
2022-11-19T22:13:42.531Z,100999.53
2022-11-19T22:16:28.650Z,100997.25
2022-11-19T22:19:14.266Z,100993.88
2022-11-19T22:21:59.593Z,101000.81
2022-11-19T22:24:44.788Z,101007.03
2022-11-19T22:27:29.576Z,101002.09
2022-11-19T22:30:14.961Z,101000.91
2022-11-19T22:33:00.056Z,100983.03
2022-11-19T22:35:44.933Z,101001.75
2022-11-19T22:38:30.161Z,100995.72
2022-11-19T22:41:17.607Z,100990.50
2022-11-19T22:44:02.586Z,100986.28
2022-11-19T22:46:47.783Z,100968.72
2022-11-19T22:49:33.092Z,100992.69
2022-11-19T22:52:18.024Z,100981.66
2022-11-19T22:55:03.517Z,100984.09
2022-11-19T22:57:48.863Z,100978.16
2022-11-19T23:00:48.911Z,100983.47
2022-11-19T23:03:34.107Z,100977.59
2022-11-19T23:06:19.606Z,100961.81
2022-11-19T23:09:06.317Z,100961.09
2022-11-19T23:12:10.163Z,100977.06
2022-11-19T23:14:55.410Z,100978.03
2022-11-19T23:17:44.608Z,100973.63
2022-11-19T23:20:31.195Z,100965.00
2022-11-19T23:23:16.312Z,100965.00
2022-11-19T23:26:03.756Z,100964.19
2022-11-19T23:28:49.591Z,100943.94
2022-11-19T23:31:37.886Z,100944.94
2022-11-19T23:34:22.994Z,100958.97
2022-11-19T23:37:08.295Z,100946.53
2022-11-19T23:39:53.229Z,100949.13
2022-11-19T23:42:38.261Z,100962.72
2022-11-19T23:45:23.287Z,100967.72
2022-11-19T23:48:08.687Z,100949.91
2022-11-19T23:50:53.770Z,100944.13
2022-11-19T23:53:39.445Z,100965.47
2022-11-19T23:56:25.638Z,100962.16
2022-11-19T23:59:10.534Z,100954.56
